Time;durP1;ratioP1;P1;durP2;ratioP2;P2;SDS_P1;SDS_P2;PMS_P1;PMS_P2;Temp;Humidity;BMP_temperature;BMP_pressure;BME280_temperature;BME280_humidity;BME280_pressure;Samples;Min_cycle;Max_cycle;Signal;HPM_P1;HPM_P2
2023/12/22 00:00:36;;;;;;;0.55;0.45;;;;;;;;;;10400794;28;20045;-76
2023/12/22 00:05:40;;;;;;;0.30;0.30;;;;;;;;;;10402461;28;20077;-74
2023/12/22 00:10:43;;;;;;;0.43;0.40;;;;;;;;;;10376345;28;20709;-74
2023/12/22 00:15:48;;;;;;;0.52;0.40;;;;;;;;;;10401574;28;20052;-73
2023/12/22 00:20:51;;;;;;;0.52;0.47;;;;;;;;;;10368594;28;20042;-73
2023/12/22 00:25:55;;;;;;;1.95;0.77;;;;;;;;;;10342759;28;20045;-73
2023/12/22 00:31:00;;;;;;;3.40;1.10;;;;;;;;;;10360652;28;20264;-73
2023/12/22 00:36:04;;;;;;;4.25;1.33;;;;;;;;;;10364901;28;20049;-73
2023/12/22 00:41:07;;;;;;;4.72;1.30;;;;;;;;;;10360249;28;20052;-73
2023/12/22 00:46:12;;;;;;;3.50;1.20;;;;;;;;;;10360124;28;20411;-73
2023/12/22 00:51:16;;;;;;;7.13;1.40;;;;;;;;;;10358176;28;20038;-73
2023/12/22 00:56:19;;;;;;;4.20;1.30;;;;;;;;;;10354606;28;20042;-74
2023/12/22 01:01:24;;;;;;;5.07;1.63;;;;;;;;;;10388761;28;20046;-74
2023/12/22 01:06:27;;;;;;;2.53;1.08;;;;;;;;;;10382873;28;20105;-74
2023/12/22 01:11:31;;;;;;;1.30;0.70;;;;;;;;;;10400553;28;20529;-74
2023/12/22 01:16:36;;;;;;;1.63;0.77;;;;;;;;;;10399639;28;20049;-74
2023/12/22 01:21:39;;;;;;;1.40;0.80;;;;;;;;;;10400576;28;20033;-74
2023/12/22 01:26:42;;;;;;;2.00;0.90;;;;;;;;;;10350355;28;20052;-73
2023/12/22 01:31:47;;;;;;;2.25;0.70;;;;;;;;;;10353214;28;20106;-74
2023/12/22 01:36:50;;;;;;;1.77;0.90;;;;;;;;;;10359815;28;20050;-73
2023/12/22 01:41:53;;;;;;;2.05;0.82;;;;;;;;;;10356102;28;20477;-73
2023/12/22 01:46:59;;;;;;;1.60;0.80;;;;;;;;;;10357137;28;20042;-74
2023/12/22 01:52:02;;;;;;;1.87;1.13;;;;;;;;;;10349202;28;20046;-73
2023/12/22 01:57:06;;;;;;;1.73;0.90;;;;;;;;;;10356940;28;20584;-74
2023/12/22 02:02:11;;;;;;;1.25;0.60;;;;;;;;;;10365990;28;20049;-74
2023/12/22 02:07:14;;;;;;;1.13;0.70;;;;;;;;;;10405514;28;20148;-73
2023/12/22 02:12:17;;;;;;;2.70;0.70;;;;;;;;;;10366923;28;20030;-74
2023/12/22 02:17:27;;;;;;;1.85;0.70;;;;;;;;;;10405339;28;20037;-74
2023/12/22 02:22:31;;;;;;;2.65;0.80;;;;;;;;;;10353515;28;20104;-74
2023/12/22 02:27:40;;;;;;;2.72;0.70;;;;;;;;;;10419695;28;20079;-74
2023/12/22 02:32:46;;;;;;;3.85;1.05;;;;;;;;;;10431087;28;20367;-74
2023/12/22 02:37:51;;;;;;;1.80;0.73;;;;;;;;;;10432401;28;20053;-74
2023/12/22 02:42:55;;;;;;;3.10;0.87;;;;;;;;;;10427428;28;20041;-74
2023/12/22 02:47:59;;;;;;;1.60;0.60;;;;;;;;;;10425476;28;20144;-74
2023/12/22 02:53:04;;;;;;;1.20;0.52;;;;;;;;;;10433856;28;20131;-74
2023/12/22 02:58:07;;;;;;;1.65;0.82;;;;;;;;;;10423274;28;20443;-74
2023/12/22 03:03:11;;;;;;;4.80;1.10;;;;;;;;;;10431529;28;20098;-74
2023/12/22 03:08:15;;;;;;;3.80;1.17;;;;;;;;;;10420326;28;20045;-74
2023/12/22 03:13:18;;;;;;;4.32;1.20;;;;;;;;;;10415769;28;20068;-74
2023/12/22 03:18:22;;;;;;;5.95;1.70;;;;;;;;;;10391110;28;20104;-74
2023/12/22 03:23:26;;;;;;;6.20;1.75;;;;;;;;;;10385744;28;20092;-74
2023/12/22 03:28:33;;;;;;;7.55;1.55;;;;;;;;;;10394213;28;20132;-74
2023/12/22 03:33:36;;;;;;;5.90;1.70;;;;;;;;;;10395792;28;20049;-74
2023/12/22 03:38:41;;;;;;;4.22;1.30;;;;;;;;;;10387521;28;20044;-74
2023/12/22 03:43:44;;;;;;;4.70;1.83;;;;;;;;;;10392476;28;20048;-74
2023/12/22 03:48:48;;;;;;;4.25;1.30;;;;;;;;;;10388618;28;20041;-74
2023/12/22 03:53:52;;;;;;;5.00;1.15;;;;;;;;;;10378061;28;20289;-74
2023/12/22 03:58:57;;;;;;;3.38;1.60;;;;;;;;;;10389204;28;20073;-74
2023/12/22 04:04:00;;;;;;;3.25;1.10;;;;;;;;;;10378796;28;20152;-74
2023/12/22 04:09:04;;;;;;;3.85;1.15;;;;;;;;;;10365994;28;20056;-73
2023/12/22 04:14:08;;;;;;;6.22;1.70;;;;;;;;;;10395822;28;20038;-74
2023/12/22 04:19:11;;;;;;;4.15;1.25;;;;;;;;;;10369238;28;20521;-74
2023/12/22 04:24:16;;;;;;;2.78;1.10;;;;;;;;;;10382497;28;20054;-74
2023/12/22 04:29:19;;;;;;;4.35;1.13;;;;;;;;;;10391506;28;20045;-74
2023/12/22 04:34:22;;;;;;;3.13;1.30;;;;;;;;;;10378756;28;20473;-74
2023/12/22 04:39:27;;;;;;;5.40;1.60;;;;;;;;;;10352311;28;20046;-74
2023/12/22 04:44:30;;;;;;;7.57;1.63;;;;;;;;;;10360578;28;20034;-74
2023/12/22 04:49:33;;;;;;;11.43;1.85;;;;;;;;;;10359164;28;20049;-74
2023/12/22 04:54:38;;;;;;;11.40;1.73;;;;;;;;;;10356999;28;20120;-74
2023/12/22 04:59:41;;;;;;;8.10;1.50;;;;;;;;;;10359876;28;20046;-74
2023/12/22 05:04:44;;;;;;;7.45;1.45;;;;;;;;;;10343248;28;20038;-74
2023/12/22 05:09:49;;;;;;;8.40;1.98;;;;;;;;;;10359931;28;20038;-74
2023/12/22 05:14:52;;;;;;;8.27;1.85;;;;;;;;;;10360105;28;20042;-74
2023/12/22 05:19:56;;;;;;;5.63;2.08;;;;;;;;;;10358826;28;20042;-73
2023/12/22 05:25:01;;;;;;;5.60;1.98;;;;;;;;;;10359727;28;20038;-74
2023/12/22 05:30:05;;;;;;;5.05;1.63;;;;;;;;;;10370982;28;20042;-74
2023/12/22 05:35:10;;;;;;;5.65;1.55;;;;;;;;;;10357469;28;20116;-74
2023/12/22 05:40:14;;;;;;;5.93;1.48;;;;;;;;;;10373753;28;20045;-73
2023/12/22 05:45:18;;;;;;;5.15;1.60;;;;;;;;;;10362512;28;20144;-74
2023/12/22 05:50:21;;;;;;;5.10;1.00;;;;;;;;;;10357508;28;20045;-73
2023/12/22 05:55:26;;;;;;;4.53;1.55;;;;;;;;;;10393810;28;20053;-74
2023/12/22 06:00:29;;;;;;;5.07;1.25;;;;;;;;;;10400758;28;20037;-73
2023/12/22 06:05:32;;;;;;;4.30;1.67;;;;;;;;;;10406299;28;20524;-74
2023/12/22 06:10:37;;;;;;;7.82;1.85;;;;;;;;;;10408134;28;20133;-73
2023/12/22 06:15:41;;;;;;;5.68;1.92;;;;;;;;;;10407695;28;20045;-75
2023/12/22 06:20:44;;;;;;;9.50;2.22;;;;;;;;;;10405319;28;20051;-73
2023/12/22 06:25:48;;;;;;;7.28;2.05;;;;;;;;;;10386085;28;20069;-74
2023/12/22 06:30:52;;;;;;;6.20;2.03;;;;;;;;;;10365524;28;20045;-74
2023/12/22 06:35:55;;;;;;;4.78;1.77;;;;;;;;;;10364089;28;20046;-74
2023/12/22 06:41:00;;;;;;;5.13;2.00;;;;;;;;;;10363936;28;20057;-74
2023/12/22 06:46:03;;;;;;;7.82;2.33;;;;;;;;;;10365636;28;20038;-73
2023/12/22 06:51:06;;;;;;;6.80;2.10;;;;;;;;;;10367870;28;20037;-73
2023/12/22 06:56:18;;;;;;;9.75;2.60;;;;;;;;;;10381425;28;20040;-74
2023/12/22 07:01:21;;;;;;;11.27;2.30;;;;;;;;;;10387224;28;20045;-73
2023/12/22 07:06:27;;;;;;;12.88;2.78;;;;;;;;;;10365498;28;20050;-73
2023/12/22 07:11:32;;;;;;;9.00;2.15;;;;;;;;;;10365074;28;20096;-73
2023/12/22 07:16:37;;;;;;;9.57;2.67;;;;;;;;;;10354477;28;20034;-73
2023/12/22 07:21:41;;;;;;;6.47;1.80;;;;;;;;;;10364447;28;20108;-73
2023/12/22 07:26:47;;;;;;;4.22;1.40;;;;;;;;;;10379151;28;20062;-73
2023/12/22 07:31:50;;;;;;;5.80;1.45;;;;;;;;;;10378151;28;20068;-73
2023/12/22 07:36:55;;;;;;;4.90;1.38;;;;;;;;;;10364910;28;20042;-73
2023/12/22 07:42:02;;;;;;;2.92;1.30;;;;;;;;;;10364278;28;20057;-78
2023/12/22 07:47:07;;;;;;;9.75;1.38;;;;;;;;;;10378889;28;20160;-75
2023/12/22 07:52:11;;;;;;;3.97;1.50;;;;;;;;;;10361332;28;20056;-73
2023/12/22 07:57:15;;;;;;;3.85;1.10;;;;;;;;;;10363372;28;20041;-74
2023/12/22 08:02:19;;;;;;;4.95;1.50;;;;;;;;;;10361509;28;20149;-74
2023/12/22 08:07:22;;;;;;;3.00;1.27;;;;;;;;;;10360785;28;20522;-74
2023/12/22 08:12:27;;;;;;;3.72;1.13;;;;;;;;;;10366658;28;20044;-74
2023/12/22 08:17:31;;;;;;;3.92;1.23;;;;;;;;;;10362804;28;20045;-74
2023/12/22 08:22:34;;;;;;;3.50;1.27;;;;;;;;;;10362422;28;20412;-74
2023/12/22 08:27:39;;;;;;;3.78;1.30;;;;;;;;;;10362519;28;20099;-75
2023/12/22 08:32:42;;;;;;;1.05;0.65;;;;;;;;;;10368208;28;20042;-74
2023/12/22 08:37:45;;;;;;;4.10;1.13;;;;;;;;;;10361991;28;20165;-74
2023/12/22 08:42:50;;;;;;;2.95;1.00;;;;;;;;;;10359778;28;20049;-74
2023/12/22 08:47:53;;;;;;;5.20;1.40;;;;;;;;;;10376712;28;20136;-74
2023/12/22 08:52:57;;;;;;;6.50;1.90;;;;;;;;;;10361939;28;20579;-74
2023/12/22 08:58:01;;;;;;;5.40;1.60;;;;;;;;;;10364121;28;20096;-74
2023/12/22 09:03:05;;;;;;;5.65;1.80;;;;;;;;;;10363180;28;20076;-74
2023/12/22 09:08:08;;;;;;;9.43;2.58;;;;;;;;;;10369380;28;20046;-74
2023/12/22 09:13:13;;;;;;;10.50;2.42;;;;;;;;;;10384924;28;20041;-73
2023/12/22 09:18:16;;;;;;;13.45;3.13;;;;;;;;;;10384757;28;20050;-74
2023/12/22 09:23:21;;;;;;;8.95;2.88;;;;;;;;;;10367000;28;20107;-74
2023/12/22 09:28:25;;;;;;;11.45;2.88;;;;;;;;;;10363247;28;20052;-74
2023/12/22 09:33:29;;;;;;;9.88;2.58;;;;;;;;;;10369768;28;20092;-74
2023/12/22 09:38:32;;;;;;;9.18;2.70;;;;;;;;;;10384953;28;20117;-74
2023/12/22 09:43:37;;;;;;;12.60;2.53;;;;;;;;;;10365343;28;20149;-74
2023/12/22 09:48:41;;;;;;;10.07;2.95;;;;;;;;;;10365563;28;20045;-74
2023/12/22 09:53:46;;;;;;;13.45;2.92;;;;;;;;;;10357404;28;20042;-74
2023/12/22 09:58:52;;;;;;;8.80;2.28;;;;;;;;;;10360250;28;20387;-74
2023/12/22 10:03:55;;;;;;;7.85;2.25;;;;;;;;;;10350602;28;20446;-74
2023/12/22 10:08:59;;;;;;;11.55;2.40;;;;;;;;;;10349617;28;20068;-74
2023/12/22 10:14:05;;;;;;;6.68;2.55;;;;;;;;;;10385518;28;20583;-74
2023/12/22 10:19:09;;;;;;;9.77;2.83;;;;;;;;;;10372779;28;20054;-73
2023/12/22 10:24:41;;;;;;;14.55;4.10;;;;;;;;;;10367102;28;20144;-74
2023/12/22 10:29:46;;;;;;;9.10;2.50;;;;;;;;;;10355845;28;20054;-74
2023/12/22 10:34:51;;;;;;;10.20;3.33;;;;;;;;;;10381863;28;20046;-74
2023/12/22 10:39:55;;;;;;;10.02;2.67;;;;;;;;;;10363300;28;20124;-74
2023/12/22 10:45:00;;;;;;;14.68;2.80;;;;;;;;;;10364611;28;20050;-74
2023/12/22 10:50:05;;;;;;;9.15;2.78;;;;;;;;;;10365638;28;20046;-74
2023/12/22 10:55:09;;;;;;;7.50;2.25;;;;;;;;;;10348267;28;20100;-74
2023/12/22 11:00:16;;;;;;;9.90;3.00;;;;;;;;;;10371916;28;20068;-74
2023/12/22 11:05:21;;;;;;;8.20;2.22;;;;;;;;;;10346917;28;20056;-74
2023/12/22 11:10:26;;;;;;;8.10;2.05;;;;;;;;;;10364988;28;20048;-74
2023/12/22 11:15:31;;;;;;;7.93;2.83;;;;;;;;;;10364945;28;20678;-74
2023/12/22 11:20:35;;;;;;;7.10;2.13;;;;;;;;;;10359873;28;20049;-74
2023/12/22 11:25:39;;;;;;;5.43;1.73;;;;;;;;;;10364440;28;20061;-74
2023/12/22 11:30:45;;;;;;;3.13;1.30;;;;;;;;;;10379209;28;20127;-74
2023/12/22 11:35:51;;;;;;;5.05;1.23;;;;;;;;;;10361958;28;20041;-74
2023/12/22 11:40:55;;;;;;;3.17;1.30;;;;;;;;;;10355095;28;20356;-74
2023/12/22 11:46:04;;;;;;;4.35;1.20;;;;;;;;;;10331789;28;20125;-74
2023/12/22 11:51:14;;;;;;;2.33;1.10;;;;;;;;;;10360150;28;20129;-74
2023/12/22 11:56:20;;;;;;;5.10;1.83;;;;;;;;;;10370568;23;20145;-76
2023/12/22 12:01:26;;;;;;;3.17;0.93;;;;;;;;;;10334087;28;20042;-75
2023/12/22 12:06:33;;;;;;;2.08;1.00;;;;;;;;;;10347303;28;20467;-75
2023/12/22 12:12:12;;;;;;;5.88;1.33;;;;;;;;;;10345190;28;20137;-75
2023/12/22 12:17:20;;;;;;;2.83;1.10;;;;;;;;;;10339455;28;20038;-75
2023/12/22 12:22:24;;;;;;;3.80;1.60;;;;;;;;;;10347502;28;20068;-75
2023/12/22 12:27:28;;;;;;;3.30;1.20;;;;;;;;;;10341185;28;20042;-75
2023/12/22 12:32:33;;;;;;;2.80;1.30;;;;;;;;;;10345381;28;20399;-75
2023/12/22 12:37:37;;;;;;;1.25;0.93;;;;;;;;;;10357367;28;20120;-75
2023/12/22 12:42:41;;;;;;;3.28;1.27;;;;;;;;;;10371974;28;20058;-76
2023/12/22 12:47:54;;;;;;;1.67;0.70;;;;;;;;;;10366926;28;20050;-75
2023/12/22 12:52:58;;;;;;;1.08;0.65;;;;;;;;;;10339130;28;20042;-75
2023/12/22 12:58:01;;;;;;;1.67;0.95;;;;;;;;;;10349455;28;20130;-75
2023/12/22 13:03:06;;;;;;;2.92;1.00;;;;;;;;;;10371962;28;20064;-75
2023/12/22 13:08:11;;;;;;;2.88;0.98;;;;;;;;;;10374837;28;20111;-75
2023/12/22 13:13:14;;;;;;;1.02;0.60;;;;;;;;;;10347882;28;20050;-75
2023/12/22 13:18:19;;;;;;;1.65;0.70;;;;;;;;;;10379883;28;20046;-75
2023/12/22 13:23:22;;;;;;;1.58;0.70;;;;;;;;;;10352645;28;20142;-75
2023/12/22 13:28:29;;;;;;;0.50;0.50;;;;;;;;;;10339022;28;20057;-75
2023/12/22 13:33:35;;;;;;;;;;;;;;;;;;10356546;28;20057;-75
2023/12/22 13:38:39;;;;;;;1.17;0.73;;;;;;;;;;10334435;28;20082;-75
2023/12/22 13:43:44;;;;;;;0.98;0.50;;;;;;;;;;10340716;28;20050;-75
2023/12/22 13:48:49;;;;;;;1.92;0.50;;;;;;;;;;10341936;28;20046;-76
2023/12/22 13:53:52;;;;;;;1.13;0.82;;;;;;;;;;10338906;28;20140;-75
2023/12/22 13:58:55;;;;;;;2.10;0.80;;;;;;;;;;10363677;28;20058;-75
2023/12/22 14:04:00;;;;;;;0.82;0.60;;;;;;;;;;10355161;28;20549;-75
2023/12/22 14:09:05;;;;;;;2.35;0.95;;;;;;;;;;10357491;28;20038;-75
2023/12/22 14:14:08;;;;;;;5.78;3.00;;;;;;;;;;10359388;28;20517;-75
2023/12/22 14:19:12;;;;;;;1.15;0.65;;;;;;;;;;10371879;28;20042;-75
2023/12/22 14:24:16;;;;;;;0.82;0.82;;;;;;;;;;10377006;28;20069;-75
2023/12/22 14:29:19;;;;;;;1.40;0.60;;;;;;;;;;10361044;28;20038;-75
2023/12/22 14:34:24;;;;;;;0.95;0.50;;;;;;;;;;10369595;28;20137;-75
2023/12/22 14:39:27;;;;;;;2.35;1.00;;;;;;;;;;10366228;28;20053;-75
2023/12/22 14:44:31;;;;;;;3.05;1.05;;;;;;;;;;10368135;28;20054;-75
2023/12/22 14:49:35;;;;;;;1.27;0.80;;;;;;;;;;10365958;28;20380;-75
2023/12/22 14:54:38;;;;;;;3.13;0.40;;;;;;;;;;10370891;28;20095;-75
2023/12/22 14:59:44;;;;;;;1.00;0.50;;;;;;;;;;10355006;28;20078;-75
2023/12/22 15:04:49;;;;;;;0.55;0.40;;;;;;;;;;10371050;28;20076;-75
2023/12/22 15:09:52;;;;;;;0.57;0.47;;;;;;;;;;10371944;28;20070;-75
2023/12/22 15:14:56;;;;;;;1.70;0.40;;;;;;;;;;10367040;28;20041;-75
2023/12/22 15:20:03;;;;;;;0.60;0.40;;;;;;;;;;10363618;28;20136;-75
2023/12/22 15:25:06;;;;;;;2.30;0.40;;;;;;;;;;10363551;28;20160;-75
2023/12/22 15:30:11;;;;;;;0.90;0.50;;;;;;;;;;10360309;28;20042;-75
2023/12/22 15:35:15;;;;;;;2.72;0.80;;;;;;;;;;10348456;28;20482;-75
2023/12/22 15:40:19;;;;;;;0.52;0.43;;;;;;;;;;10349457;28;20128;-75
2023/12/22 15:45:22;;;;;;;1.27;0.50;;;;;;;;;;10366001;28;20129;-74
2023/12/22 15:50:27;;;;;;;2.00;0.68;;;;;;;;;;10363793;28;20053;-75
2023/12/22 15:55:30;;;;;;;0.85;0.50;;;;;;;;;;10372728;28;20128;-75
2023/12/22 16:00:34;;;;;;;0.65;0.65;;;;;;;;;;10370437;28;20463;-75
2023/12/22 16:05:39;;;;;;;2.05;1.00;;;;;;;;;;10360600;28;20042;-75
2023/12/22 16:10:42;;;;;;;2.95;2.15;;;;;;;;;;10362596;28;20507;-75
2023/12/22 16:15:46;;;;;;;1.58;1.00;;;;;;;;;;10348907;28;20407;-75
2023/12/22 16:20:50;;;;;;;0.88;0.70;;;;;;;;;;10358775;28;20117;-76
2023/12/22 16:25:55;;;;;;;0.90;0.60;;;;;;;;;;10361364;28;20045;-75
2023/12/22 16:30:59;;;;;;;1.15;0.77;;;;;;;;;;10364512;28;20147;-75
2023/12/22 16:36:09;;;;;;;3.15;2.50;;;;;;;;;;10357575;28;20057;-75
2023/12/22 16:41:13;;;;;;;4.55;2.35;;;;;;;;;;10364539;28;20144;-75
2023/12/22 16:46:16;;;;;;;3.28;1.80;;;;;;;;;;10373789;28;20050;-76
2023/12/22 16:51:21;;;;;;;1.20;1.10;;;;;;;;;;10356321;28;20045;-75
2023/12/22 16:56:24;;;;;;;1.38;0.70;;;;;;;;;;10358149;28;20041;-76
2023/12/22 17:01:28;;;;;;;1.15;0.60;;;;;;;;;;10342157;28;20030;-75
2023/12/22 17:06:33;;;;;;;1.85;0.63;;;;;;;;;;10364421;28;20124;-76
2023/12/22 17:11:36;;;;;;;1.15;0.70;;;;;;;;;;10365064;28;20046;-76
2023/12/22 17:16:39;;;;;;;0.85;0.70;;;;;;;;;;10361392;28;20045;-76
2023/12/22 17:21:44;;;;;;;2.53;0.90;;;;;;;;;;10366504;28;20038;-76
2023/12/22 17:26:47;;;;;;;2.45;1.00;;;;;;;;;;10388213;28;20060;-75
2023/12/22 17:31:55;;;;;;;1.88;1.00;;;;;;;;;;10352973;28;20034;-75
2023/12/22 17:37:00;;;;;;;1.77;0.80;;;;;;;;;;10352215;28;20116;-76
2023/12/22 17:42:03;;;;;;;0.50;0.50;;;;;;;;;;10347977;28;20049;-75
2023/12/22 17:47:07;;;;;;;0.93;0.60;;;;;;;;;;10354175;28;20129;-75
2023/12/22 17:52:13;;;;;;;2.13;1.70;;;;;;;;;;10357280;28;20052;-76
2023/12/22 17:57:17;;;;;;;2.03;1.10;;;;;;;;;;10393038;23;20100;-76
2023/12/22 18:02:21;;;;;;;1.38;0.73;;;;;;;;;;10428029;28;20039;-76
2023/12/22 18:07:26;;;;;;;0.57;0.57;;;;;;;;;;10438230;28;20043;-76
2023/12/22 18:12:29;;;;;;;6.65;1.23;;;;;;;;;;10426026;28;20061;-76
2023/12/22 18:17:33;;;;;;;1.13;0.70;;;;;;;;;;10391105;28;20045;-76
2023/12/22 18:22:38;;;;;;;2.42;1.30;;;;;;;;;;10392726;28;20096;-76
2023/12/22 18:27:41;;;;;;;1.42;0.80;;;;;;;;;;10399054;28;20144;-76
2023/12/22 18:32:45;;;;;;;2.22;0.77;;;;;;;;;;10396940;28;20111;-76
2023/12/22 18:37:49;;;;;;;2.38;0.70;;;;;;;;;;10400658;28;20095;-76
2023/12/22 18:42:53;;;;;;;1.55;0.63;;;;;;;;;;10386105;28;20129;-75
2023/12/22 18:47:56;;;;;;;0.77;0.50;;;;;;;;;;10392855;28;20052;-76
2023/12/22 18:53:02;;;;;;;1.17;0.50;;;;;;;;;;10381427;28;20635;-76
2023/12/22 18:58:06;;;;;;;2.33;1.13;;;;;;;;;;10394371;28;20585;-76
2023/12/22 19:03:09;;;;;;;1.25;0.70;;;;;;;;;;10386719;28;20050;-76
2023/12/22 19:08:14;;;;;;;1.65;0.80;;;;;;;;;;10386007;28;20049;-76
2023/12/22 19:13:17;;;;;;;2.95;0.90;;;;;;;;;;10386945;28;20094;-76
2023/12/22 19:18:20;;;;;;;2.17;0.77;;;;;;;;;;10385727;28;20065;-76
2023/12/22 19:23:26;;;;;;;2.42;0.70;;;;;;;;;;10395072;28;20040;-75
2023/12/22 19:28:29;;;;;;;3.63;0.70;;;;;;;;;;10386088;28;20442;-76
2023/12/22 19:33:33;;;;;;;1.67;0.80;;;;;;;;;;10388718;28;20132;-76
2023/12/22 19:38:37;;;;;;;2.65;1.20;;;;;;;;;;10390416;28;20049;-76
2023/12/22 19:43:40;;;;;;;2.55;1.20;;;;;;;;;;10393959;28;20529;-76
2023/12/22 19:48:44;;;;;;;2.40;0.70;;;;;;;;;;10394476;28;20124;-76
2023/12/22 19:53:49;;;;;;;3.95;1.38;;;;;;;;;;10388709;28;20421;-76
2023/12/22 19:58:52;;;;;;;2.75;0.90;;;;;;;;;;10387802;28;20073;-76
2023/12/22 20:03:55;;;;;;;3.05;1.08;;;;;;;;;;10384723;28;20087;-76
2023/12/22 20:09:00;;;;;;;1.05;0.70;;;;;;;;;;10388871;28;20596;-76
2023/12/22 20:14:04;;;;;;;3.72;1.05;;;;;;;;;;10390826;28;20539;-76
2023/12/22 20:19:08;;;;;;;1.80;0.90;;;;;;;;;;10385262;28;20080;-76
2023/12/22 20:24:12;;;;;;;4.47;1.10;;;;;;;;;;10388654;28;20033;-75
2023/12/22 20:29:15;;;;;;;2.75;1.20;;;;;;;;;;10375361;28;20046;-76
2023/12/22 20:34:19;;;;;;;3.40;1.10;;;;;;;;;;10386655;28;20111;-76
2023/12/22 20:39:23;;;;;;;3.63;1.10;;;;;;;;;;10381038;28;20406;-76
2023/12/22 20:44:27;;;;;;;11.68;0.90;;;;;;;;;;10377360;28;20041;-76
2023/12/22 20:49:30;;;;;;;3.90;1.13;;;;;;;;;;10383997;28;20080;-76
2023/12/22 20:54:35;;;;;;;2.92;0.75;;;;;;;;;;10396313;28;20055;-76
2023/12/22 20:59:40;;;;;;;2.57;0.97;;;;;;;;;;10392745;28;20539;-76
2023/12/22 21:04:44;;;;;;;3.58;0.90;;;;;;;;;;10395180;28;20054;-75
2023/12/22 21:09:48;;;;;;;2.95;1.02;;;;;;;;;;10406133;28;20038;-76
2023/12/22 21:14:52;;;;;;;4.57;1.02;;;;;;;;;;10394798;28;20541;-76
2023/12/22 21:19:56;;;;;;;3.60;1.10;;;;;;;;;;10396753;28;20033;-76
2023/12/22 21:25:00;;;;;;;4.20;1.38;;;;;;;;;;10397060;28;20046;-76
2023/12/22 21:30:05;;;;;;;2.25;0.88;;;;;;;;;;10390804;28;20469;-76
2023/12/22 21:35:08;;;;;;;3.70;0.95;;;;;;;;;;10394211;28;20515;-76
2023/12/22 21:40:14;;;;;;;3.80;0.98;;;;;;;;;;10383198;28;20108;-76
2023/12/22 21:45:18;;;;;;;2.70;1.20;;;;;;;;;;10393262;28;20040;-75
2023/12/22 21:50:21;;;;;;;1.95;1.00;;;;;;;;;;10419655;28;20404;-76
2023/12/22 21:55:26;;;;;;;3.28;0.82;;;;;;;;;;10393505;28;20512;-75
2023/12/22 22:00:29;;;;;;;4.32;1.00;;;;;;;;;;10421658;28;20052;-76
2023/12/22 22:05:33;;;;;;;2.78;1.00;;;;;;;;;;10415955;28;20071;-76
2023/12/22 22:10:38;;;;;;;1.33;0.77;;;;;;;;;;10439929;28;20052;-76
2023/12/22 22:15:42;;;;;;;2.22;0.85;;;;;;;;;;10446424;28;20057;-76
2023/12/22 22:20:45;;;;;;;3.20;0.88;;;;;;;;;;10436525;28;20071;-76
2023/12/22 22:25:50;;;;;;;1.90;0.90;;;;;;;;;;10435058;28;20047;-76
2023/12/22 22:30:53;;;;;;;4.60;0.90;;;;;;;;;;10431220;28;20045;-76
2023/12/22 22:35:56;;;;;;;3.53;1.05;;;;;;;;;;10444161;28;20056;-76
2023/12/22 22:41:01;;;;;;;2.78;1.00;;;;;;;;;;10413196;28;20041;-76
2023/12/22 22:46:05;;;;;;;1.65;0.90;;;;;;;;;;10438555;28;20068;-76
2023/12/22 22:51:08;;;;;;;3.13;1.10;;;;;;;;;;10432685;28;20033;-76
2023/12/22 22:56:12;;;;;;;3.15;0.90;;;;;;;;;;10417276;28;20057;-76
2023/12/22 23:01:16;;;;;;;4.72;1.65;;;;;;;;;;10430219;28;20046;-76
2023/12/22 23:06:19;;;;;;;4.57;1.42;;;;;;;;;;10442189;28;20049;-76
2023/12/22 23:11:24;;;;;;;3.85;1.23;;;;;;;;;;10427970;28;20061;-76
2023/12/22 23:16:27;;;;;;;3.17;1.02;;;;;;;;;;10441955;28;20087;-76
2023/12/22 23:21:31;;;;;;;3.47;1.15;;;;;;;;;;10440449;28;20030;-76
2023/12/22 23:26:39;;;;;;;3.88;1.13;;;;;;;;;;10420365;28;20049;-76
2023/12/22 23:31:42;;;;;;;2.60;1.13;;;;;;;;;;10433068;28;20509;-76
2023/12/22 23:36:46;;;;;;;2.33;1.00;;;;;;;;;;10438494;28;20524;-76
2023/12/22 23:41:51;;;;;;;4.25;1.00;;;;;;;;;;10438808;28;20033;-76
2023/12/22 23:46:54;;;;;;;1.00;0.50;;;;;;;;;;10436292;28;20041;-76
2023/12/22 23:51:58;;;;;;;0.70;0.50;;;;;;;;;;10430437;28;20605;-76
2023/12/22 23:57:03;;;;;;;0.70;0.50;;;;;;;;;;10451587;22;20405;-74
